createdAt,value
2024-04-11T00:02:21.360Z,1.53
2024-04-11T00:04:49.306Z,1.60
2024-04-11T00:07:16.243Z,1.80
2024-04-11T00:09:43.241Z,1.83
2024-04-11T00:12:10.300Z,1.85
2024-04-11T00:14:37.365Z,2.07
2024-04-11T00:17:05.748Z,1.67
2024-04-11T00:19:36.966Z,2.10
2024-04-11T00:22:04.355Z,1.80
2024-04-11T00:24:31.693Z,2.03
2024-04-11T00:26:59.999Z,1.90
2024-04-11T00:29:27.191Z,1.88
2024-04-11T00:31:55.551Z,1.50
2024-04-11T00:34:27.152Z,1.65
2024-04-11T00:36:56.947Z,1.60
2024-04-11T00:39:24.330Z,1.70
2024-04-11T00:41:52.127Z,1.80
2024-04-11T00:44:20.891Z,1.75
2024-04-11T00:46:52.658Z,1.80
2024-04-11T00:49:21.959Z,1.80
2024-04-11T00:51:49.791Z,1.30
2024-04-11T00:54:18.669Z,1.77
2024-04-11T00:56:46.202Z,1.88
2024-04-11T00:59:17.663Z,1.92
2024-04-11T01:01:48.162Z,2.58
2024-04-11T01:04:15.412Z,1.67
2024-04-11T01:07:04.423Z,1.77
2024-04-11T01:09:32.058Z,2.30
2024-04-11T01:11:59.014Z,1.70
2024-04-11T01:14:26.607Z,2.13
2024-04-11T01:16:54.915Z,1.90
2024-04-11T01:19:22.869Z,1.70
2024-04-11T01:21:50.908Z,2.17
2024-04-11T01:24:17.888Z,1.60
2024-04-11T01:26:45.238Z,3.05
2024-04-11T01:29:12.773Z,1.77
2024-04-11T01:31:40.333Z,1.58
2024-04-11T01:34:08.172Z,2.35
2024-04-11T01:36:35.191Z,1.67
2024-04-11T01:39:10.440Z,2.10
2024-04-11T01:41:40.643Z,2.37
2024-04-11T01:44:08.537Z,2.15
2024-04-11T01:46:35.912Z,2.25
2024-04-11T01:49:03.375Z,1.75
2024-04-11T01:51:30.781Z,1.85
2024-04-11T01:53:58.202Z,1.90
2024-04-11T01:56:27.227Z,2.10
2024-04-11T01:58:54.690Z,2.30
2024-04-11T02:01:22.109Z,1.90
2024-04-11T02:03:49.555Z,1.98
2024-04-11T02:06:16.846Z,2.03
2024-04-11T02:08:44.246Z,1.85
2024-04-11T02:11:13.027Z,2.45
2024-04-11T02:13:40.472Z,2.00
2024-04-11T02:16:08.006Z,2.20
2024-04-11T02:18:35.118Z,1.90
2024-04-11T02:21:02.597Z,2.15
2024-04-11T02:23:31.485Z,1.77
2024-04-11T02:25:58.537Z,1.95
2024-04-11T02:28:25.811Z,2.20
2024-04-11T02:30:55.210Z,1.80
2024-04-11T02:33:31.302Z,1.70
2024-04-11T02:35:58.930Z,2.40
2024-04-11T02:38:28.770Z,2.28
2024-04-11T02:40:56.197Z,2.20
2024-04-11T02:43:23.090Z,2.10
2024-04-11T02:45:50.946Z,2.00
2024-04-11T02:48:18.462Z,1.90
2024-04-11T02:50:45.938Z,2.20
2024-04-11T02:53:13.031Z,2.47
2024-04-11T02:55:41.438Z,2.10
2024-04-11T02:58:08.928Z,1.98
2024-04-11T03:00:35.929Z,1.88
2024-04-11T03:03:03.445Z,2.08
2024-04-11T03:05:30.972Z,1.98
2024-04-11T03:07:58.566Z,2.23
2024-04-11T03:10:25.940Z,2.17
2024-04-11T03:12:53.580Z,2.63
2024-04-11T03:15:20.757Z,1.90
2024-04-11T03:17:47.839Z,1.88
2024-04-11T03:20:19.107Z,1.90
2024-04-11T03:22:46.674Z,2.53
2024-04-11T03:25:14.267Z,2.13
2024-04-11T03:27:41.880Z,2.20
2024-04-11T03:30:09.880Z,2.40
2024-04-11T03:32:37.043Z,2.30
2024-04-11T03:35:05.576Z,2.00
2024-04-11T03:37:33.122Z,2.10
2024-04-11T03:40:00.196Z,2.40
2024-04-11T03:42:28.885Z,1.90
2024-04-11T03:44:55.864Z,2.10
2024-04-11T03:47:24.462Z,2.47
2024-04-11T03:49:53.882Z,2.22
2024-04-11T03:52:21.370Z,2.67
2024-04-11T03:54:48.720Z,2.05
2024-04-11T03:57:16.117Z,2.00
2024-04-11T03:59:43.130Z,1.63
2024-04-11T04:02:10.658Z,1.85
2024-04-11T04:04:37.771Z,1.92
2024-04-11T04:07:09.163Z,2.10
2024-04-11T04:09:36.576Z,2.07
2024-04-11T04:12:04.021Z,1.77
2024-04-11T04:14:33.289Z,2.00
2024-04-11T04:17:02.029Z,2.10
2024-04-11T04:19:29.402Z,2.40
2024-04-11T04:21:56.713Z,2.57
2024-04-11T04:24:23.665Z,2.28
2024-04-11T04:26:50.707Z,2.08
2024-04-11T04:29:18.436Z,1.58
2024-04-11T04:31:46.372Z,2.22
2024-04-11T04:34:17.287Z,2.20
2024-04-11T04:36:47.706Z,1.98
2024-04-11T04:39:15.945Z,2.35
2024-04-11T04:41:45.253Z,1.85
2024-04-11T04:44:13.571Z,2.50
2024-04-11T04:46:40.900Z,2.50
2024-04-11T04:49:11.634Z,2.20
2024-04-11T04:51:39.653Z,2.40
2024-04-11T04:54:13.496Z,2.65
2024-04-11T04:56:44.100Z,1.70
2024-04-11T04:59:13.637Z,2.00
2024-04-11T05:01:42.700Z,2.45
2024-04-11T05:04:15.986Z,2.30
2024-04-11T05:06:44.657Z,2.65
2024-04-11T05:09:11.940Z,2.92
2024-04-11T05:11:39.193Z,2.53
2024-04-11T05:14:09.483Z,3.22
2024-04-11T05:16:37.807Z,2.60
2024-04-11T05:19:12.291Z,2.20
2024-04-11T05:21:41.013Z,2.88
2024-04-11T05:24:10.706Z,2.70
2024-04-11T05:26:39.307Z,2.33
2024-04-11T05:29:09.391Z,3.17
2024-04-11T05:31:39.213Z,2.25
2024-04-11T05:34:15.296Z,2.80
2024-04-11T05:36:42.960Z,2.87
2024-04-11T05:39:10.972Z,2.50
2024-04-11T05:41:39.039Z,2.40
2024-04-11T05:44:08.564Z,2.78
2024-04-11T05:46:36.692Z,2.17
2024-04-11T05:49:08.150Z,2.50
2024-04-11T05:51:38.392Z,2.53
2024-04-11T05:54:06.447Z,2.83
2024-04-11T05:56:35.883Z,2.95
2024-04-11T05:59:03.581Z,2.92
2024-04-11T06:01:35.809Z,2.47
2024-04-11T06:04:07.162Z,2.90
2024-04-11T06:06:34.808Z,2.90
2024-04-11T06:09:02.673Z,2.10
2024-04-11T06:11:30.116Z,3.10
2024-04-11T06:13:57.783Z,3.13
2024-04-11T06:16:26.227Z,3.00
2024-04-11T06:18:56.158Z,2.47
2024-04-11T06:21:34.504Z,3.17
2024-04-11T06:24:06.727Z,4.53
2024-04-11T06:26:35.424Z,3.20
2024-04-11T06:29:09.248Z,3.15
2024-04-11T06:31:40.319Z,3.90
2024-04-11T06:34:10.300Z,3.53
2024-04-11T06:36:40.060Z,3.83
2024-04-11T06:39:11.459Z,3.30
2024-04-11T06:41:39.016Z,3.88
2024-04-11T06:46:36.499Z,3.42
2024-04-11T06:49:04.229Z,3.85
2024-04-11T06:51:35.051Z,4.00
2024-04-11T06:54:05.243Z,4.00
2024-04-11T06:56:33.358Z,4.28
2024-04-11T06:59:02.547Z,3.63
2024-04-11T07:01:30.320Z,3.80
2024-04-11T07:04:01.819Z,4.07
2024-04-11T07:06:31.268Z,4.03
2024-04-11T07:08:59.851Z,4.50
2024-04-11T07:11:33.762Z,5.93
2024-04-11T07:14:07.243Z,4.47
2024-04-11T07:16:34.818Z,4.40
2024-04-11T07:19:05.424Z,4.30
2024-04-11T07:21:36.328Z,4.05
2024-04-11T07:24:05.710Z,4.25
2024-04-11T07:26:34.612Z,4.57
2024-04-11T07:29:05.517Z,4.80
2024-04-11T07:31:35.112Z,4.78
2024-04-11T07:34:04.734Z,4.38
2024-04-11T07:36:34.295Z,4.43
2024-04-11T07:39:02.827Z,4.53
2024-04-11T07:41:46.150Z,4.83
2024-04-11T07:44:25.299Z,4.45
2024-04-11T07:47:01.192Z,5.47
2024-04-11T07:49:42.652Z,5.35
2024-04-11T07:52:12.480Z,4.35
2024-04-11T07:54:47.524Z,5.00
2024-04-11T07:57:18.397Z,4.60
2024-04-11T07:59:46.460Z,5.10
2024-04-11T08:02:16.183Z,5.13
2024-04-11T08:04:44.022Z,5.75
2024-04-11T08:07:11.423Z,5.13
2024-04-11T08:09:57.049Z,5.82
2024-04-11T08:12:24.666Z,6.75
2024-04-11T08:14:51.636Z,5.97
2024-04-11T08:17:19.319Z,6.53
2024-04-11T08:19:55.838Z,6.20
2024-04-11T08:22:26.240Z,6.85
2024-04-11T08:24:55.291Z,7.47
2024-04-11T08:27:24.190Z,8.02
2024-04-11T08:29:51.891Z,7.18
2024-04-11T08:32:23.370Z,6.97
2024-04-11T08:34:51.913Z,6.38
2024-04-11T08:37:20.429Z,8.27
2024-04-11T08:39:47.559Z,7.90
2024-04-11T08:42:14.979Z,8.35
2024-04-11T08:44:45.092Z,7.63
2024-04-11T08:47:12.694Z,9.48
2024-04-11T08:49:40.200Z,7.63
2024-04-11T08:52:09.214Z,8.57
2024-04-11T08:54:42.159Z,8.50
2024-04-11T08:57:12.385Z,9.27
2024-04-11T08:59:42.478Z,7.88
2024-04-11T09:02:11.236Z,9.20
2024-04-11T09:04:38.687Z,8.77
2024-04-11T09:07:06.313Z,8.18
2024-04-11T09:09:33.702Z,9.67
2024-04-11T09:12:02.115Z,9.27
2024-04-11T09:14:30.456Z,8.95
2024-04-11T09:17:06.526Z,7.93
2024-04-11T09:19:40.814Z,8.43
2024-04-11T09:22:14.979Z,9.33
2024-04-11T09:24:45.466Z,7.38
2024-04-11T09:27:18.501Z,9.07
2024-04-11T09:29:46.113Z,8.70
2024-04-11T09:32:13.136Z,8.95
2024-04-11T09:34:44.835Z,9.03
2024-04-11T09:37:17.130Z,9.15
2024-04-11T09:39:48.634Z,9.40
2024-04-11T09:42:20.164Z,8.75
2024-04-11T09:44:55.014Z,7.55
2024-04-11T09:47:29.097Z,9.07
2024-04-11T09:50:00.849Z,9.95
2024-04-11T09:52:32.839Z,8.50
2024-04-11T09:55:05.858Z,8.13
2024-04-11T09:57:35.785Z,8.98
2024-04-11T10:00:09.168Z,9.10
2024-04-11T10:02:40.278Z,8.20
2024-04-11T10:05:08.042Z,9.20
2024-04-11T10:07:45.232Z,8.25
2024-04-11T10:10:22.314Z,9.13
2024-04-11T10:12:53.437Z,9.30
2024-04-11T10:15:23.218Z,9.23
2024-04-11T10:18:12.043Z,8.32
2024-04-11T10:20:41.353Z,9.27
2024-04-11T10:23:11.327Z,8.40
2024-04-11T10:25:42.364Z,9.03
2024-04-11T10:28:19.680Z,9.20
2024-04-11T10:30:52.827Z,8.45
2024-04-11T10:33:31.275Z,9.23
2024-04-11T10:36:00.353Z,8.57
2024-04-11T10:38:29.068Z,8.00
2024-04-11T10:40:57.614Z,8.57
2024-04-11T10:43:29.378Z,7.60
2024-04-11T10:45:58.495Z,8.60
2024-04-11T10:48:26.449Z,6.72
2024-04-11T10:51:00.453Z,8.57
2024-04-11T10:53:28.282Z,7.97
2024-04-11T10:55:57.282Z,7.25
2024-04-11T10:58:29.961Z,8.02
2024-04-11T11:01:04.520Z,7.38
2024-04-11T11:03:45.901Z,7.87
2024-04-11T11:06:36.294Z,7.03
2024-04-11T11:09:14.434Z,7.88
2024-04-11T11:11:43.087Z,8.32
2024-04-11T11:14:10.914Z,8.63
2024-04-11T11:16:39.496Z,7.47
2024-04-11T11:19:09.520Z,7.68
2024-04-11T11:21:41.466Z,7.93
2024-04-11T11:24:09.367Z,6.20
2024-04-11T11:26:38.194Z,7.93
2024-04-11T11:29:05.695Z,8.17
2024-04-11T11:31:37.994Z,7.05
2024-04-11T11:34:12.596Z,7.70
2024-04-11T11:36:49.803Z,7.30
2024-04-11T11:39:19.574Z,7.07
2024-04-11T11:41:50.104Z,6.80
2024-04-11T11:44:22.685Z,6.47
2024-04-11T11:47:22.960Z,7.00
2024-04-11T11:49:53.071Z,6.40
2024-04-11T11:52:22.135Z,7.10
2024-04-11T11:54:52.052Z,6.73
2024-04-11T11:57:19.456Z,7.20
2024-04-11T11:59:47.189Z,7.13
2024-04-11T12:02:17.718Z,8.82
2024-04-11T12:04:48.137Z,7.10
2024-04-11T12:07:19.590Z,7.23
2024-04-11T12:09:57.798Z,7.22
2024-04-11T12:12:25.267Z,9.00
2024-04-11T12:14:56.453Z,6.22
2024-04-11T12:17:25.111Z,6.78
2024-04-11T12:19:53.900Z,7.53
2024-04-11T12:22:21.532Z,7.25
2024-04-11T12:24:52.239Z,7.28
2024-04-11T12:27:22.573Z,6.88
2024-04-11T12:29:50.344Z,6.85
2024-04-11T12:32:19.706Z,7.07
2024-04-11T12:34:49.202Z,7.00
2024-04-11T12:37:28.223Z,7.10
2024-04-11T12:39:55.981Z,7.07
2024-04-11T12:42:31.790Z,7.10
2024-04-11T12:45:04.473Z,6.37
2024-04-11T12:47:41.962Z,6.78
2024-04-11T12:50:14.271Z,6.28
2024-04-11T12:52:45.747Z,6.63
2024-04-11T12:55:13.552Z,7.18
2024-04-11T12:57:40.952Z,6.90
2024-04-11T13:00:36.456Z,6.03
2024-04-11T13:03:20.668Z,6.53
2024-04-11T13:05:54.080Z,6.03
2024-04-11T13:08:32.671Z,5.90
2024-04-11T13:11:10.694Z,5.90
2024-04-11T13:13:40.912Z,5.95
2024-04-11T13:16:11.683Z,6.32
2024-04-11T13:18:40.077Z,5.75
2024-04-11T13:21:32.100Z,5.43
2024-04-11T13:23:59.865Z,5.87
2024-04-11T13:26:27.407Z,5.65
2024-04-11T13:28:59.967Z,5.28
2024-04-11T13:31:28.545Z,5.18
2024-04-11T13:33:55.802Z,4.28
2024-04-11T13:36:26.045Z,5.13
2024-04-11T13:38:53.845Z,5.22
2024-04-11T13:41:49.850Z,5.30
2024-04-11T13:44:27.481Z,3.75
2024-04-11T13:46:55.673Z,4.82
2024-04-11T13:49:26.699Z,5.00
2024-04-11T13:51:54.868Z,5.13
2024-04-11T13:54:29.419Z,4.75
2024-04-11T13:57:01.621Z,3.70
2024-04-11T13:59:29.964Z,4.57
2024-04-11T14:02:01.315Z,3.80
2024-04-11T14:04:59.947Z,4.20
2024-04-11T14:07:29.237Z,4.35
2024-04-11T14:09:57.160Z,4.88
2024-04-11T14:12:26.074Z,5.32
2024-04-11T14:14:53.508Z,5.03
2024-04-11T14:17:28.514Z,5.03
2024-04-11T14:20:14.996Z,4.85
2024-04-11T14:22:49.798Z,4.10
2024-04-11T14:25:20.927Z,3.67
2024-04-11T14:27:51.587Z,5.90
2024-04-11T14:30:27.326Z,4.32
2024-04-11T14:32:58.170Z,4.43
2024-04-11T14:35:25.809Z,4.28
2024-04-11T14:38:08.703Z,4.20
2024-04-11T14:40:40.442Z,4.17
2024-04-11T14:43:11.801Z,4.57
2024-04-11T14:45:41.094Z,5.45
2024-04-11T14:48:23.264Z,5.10
2024-04-11T14:50:59.873Z,4.70
2024-04-11T14:53:27.718Z,4.60
2024-04-11T14:55:57.278Z,4.75
2024-04-11T14:58:32.334Z,5.22
2024-04-11T15:01:15.998Z,4.88
2024-04-11T15:03:46.919Z,4.70
2024-04-11T15:06:16.973Z,4.60
2024-04-11T15:08:50.129Z,4.70
2024-04-11T15:11:24.565Z,4.22
2024-04-11T15:13:54.985Z,4.13
2024-04-11T15:16:40.359Z,4.50
2024-04-11T15:19:09.954Z,4.93
2024-04-11T15:21:37.552Z,5.45
2024-04-11T15:24:07.916Z,5.45
2024-04-11T15:26:36.512Z,5.15
2024-04-11T15:29:13.510Z,5.85
2024-04-11T15:31:42.872Z,5.37
2024-04-11T15:34:10.348Z,6.00
2024-04-11T15:37:15.903Z,5.00
2024-04-11T15:39:45.446Z,4.85
2024-04-11T15:42:13.065Z,5.18
2024-04-11T15:44:47.826Z,5.20
2024-04-11T15:47:16.948Z,5.55
2024-04-11T15:49:44.947Z,5.55
2024-04-11T15:52:12.019Z,5.63
2024-04-11T15:54:56.665Z,5.95
2024-04-11T15:57:32.252Z,6.30
2024-04-11T16:00:11.802Z,6.35
2024-04-11T16:02:46.253Z,6.10
2024-04-11T16:05:26.116Z,6.43
2024-04-11T16:08:12.342Z,6.80
2024-04-11T16:10:40.228Z,6.57
2024-04-11T16:13:13.959Z,6.82
2024-04-11T16:15:42.786Z,7.30
2024-04-11T16:18:11.092Z,6.72
2024-04-11T16:20:38.341Z,6.03
2024-04-11T16:23:08.862Z,6.77
2024-04-11T16:25:40.498Z,8.18
2024-04-11T16:28:09.703Z,7.47
2024-04-11T16:30:55.723Z,6.18
2024-04-11T16:33:24.707Z,6.35
2024-04-11T16:35:52.924Z,6.63
2024-04-11T16:38:37.264Z,6.35
2024-04-11T16:41:07.766Z,10.30
2024-04-11T16:43:38.139Z,6.72
2024-04-11T16:46:15.335Z,5.97
2024-04-11T16:48:44.067Z,6.63
2024-04-11T16:51:11.691Z,6.65
2024-04-11T16:53:48.015Z,6.28
2024-04-11T16:56:15.852Z,7.00
2024-04-11T16:58:49.623Z,6.40
2024-04-11T17:01:18.412Z,6.43
2024-04-11T17:03:55.159Z,6.45
2024-04-11T17:06:23.260Z,5.25
2024-04-11T17:08:50.780Z,6.63
2024-04-11T17:11:20.575Z,7.10
2024-04-11T17:13:55.439Z,8.10
2024-04-11T17:16:42.930Z,7.43
2024-04-11T17:19:30.015Z,7.78
2024-04-11T17:21:58.073Z,8.05
2024-04-11T17:24:25.759Z,7.57
2024-04-11T17:26:54.623Z,7.07
2024-04-11T17:29:40.261Z,7.47
2024-04-11T17:32:13.933Z,5.78
2024-04-11T17:34:47.149Z,7.13
2024-04-11T17:37:17.319Z,8.30
2024-04-11T17:39:45.464Z,7.93
2024-04-11T17:42:25.583Z,8.38
2024-04-11T17:44:53.486Z,8.13
2024-04-11T17:47:32.977Z,7.43
2024-04-11T17:50:05.181Z,7.45
2024-04-11T17:52:46.106Z,8.13
2024-04-11T17:55:30.260Z,7.88
2024-04-11T17:58:01.439Z,8.32
2024-04-11T18:00:39.001Z,6.50
2024-04-11T18:03:16.094Z,7.25
2024-04-11T18:05:49.514Z,7.33
2024-04-11T18:08:21.240Z,8.32
2024-04-11T18:10:51.572Z,7.65
2024-04-11T18:13:19.504Z,7.60
2024-04-11T18:15:51.412Z,7.57
2024-04-11T18:18:21.833Z,7.17
2024-04-11T18:20:52.740Z,7.95
2024-04-11T18:23:25.624Z,7.47
2024-04-11T18:25:58.099Z,7.72
2024-04-11T18:28:31.370Z,7.93
2024-04-11T18:31:06.982Z,8.80
2024-04-11T18:33:36.266Z,8.80
2024-04-11T18:36:16.076Z,8.63
2024-04-11T18:38:45.297Z,8.00
2024-04-11T18:41:12.933Z,8.93
2024-04-11T18:43:40.590Z,8.93
2024-04-11T18:46:19.636Z,8.85
2024-04-11T18:49:01.100Z,8.88
2024-04-11T18:51:40.111Z,10.75
2024-04-11T18:54:14.106Z,9.05
2024-04-11T18:56:43.442Z,9.27
2024-04-11T18:59:14.500Z,10.13
2024-04-11T19:01:42.484Z,10.63
2024-04-11T19:04:31.666Z,9.70
2024-04-11T19:07:03.908Z,10.57
2024-04-11T19:09:31.275Z,10.13
2024-04-11T19:11:58.964Z,9.75
2024-04-11T19:14:30.443Z,10.88
2024-04-11T19:17:01.964Z,11.35
2024-04-11T19:19:29.467Z,10.80
2024-04-11T19:21:56.970Z,11.50
2024-04-11T19:24:29.227Z,12.05
2024-04-11T19:26:58.920Z,11.43
2024-04-11T19:29:38.836Z,10.20
2024-04-11T19:32:09.435Z,12.05
2024-04-11T19:34:41.784Z,13.50
2024-04-11T19:37:13.069Z,12.48
2024-04-11T19:39:44.248Z,11.73
2024-04-11T19:42:20.473Z,13.13
2024-04-11T19:44:49.242Z,13.05
2024-04-11T19:47:20.214Z,13.80
2024-04-11T19:50:01.463Z,14.02
2024-04-11T19:52:32.614Z,13.35
2024-04-11T19:55:10.317Z,13.27
2024-04-11T19:57:49.820Z,13.55
2024-04-11T20:00:39.706Z,11.37
2024-04-11T20:03:26.635Z,14.57
2024-04-11T20:05:59.728Z,15.63
2024-04-11T20:08:38.178Z,15.57
2024-04-11T20:11:05.492Z,14.48
2024-04-11T20:13:46.199Z,15.43
2024-04-11T20:16:23.645Z,15.73
2024-04-11T20:18:55.300Z,15.23
2024-04-11T20:21:32.144Z,16.85
2024-04-11T20:24:02.553Z,15.13
2024-04-11T20:26:32.448Z,15.50
2024-04-11T20:29:16.936Z,16.48
2024-04-11T20:31:44.733Z,15.23
2024-04-11T20:34:11.973Z,15.82
2024-04-11T20:36:45.812Z,16.70
2024-04-11T20:39:24.206Z,17.03
2024-04-11T20:42:10.460Z,16.52
2024-04-11T20:44:46.832Z,16.35
2024-04-11T20:47:14.532Z,16.92
2024-04-11T20:49:44.821Z,15.65
2024-04-11T20:52:31.917Z,17.63
2024-04-11T20:55:18.567Z,17.48
2024-04-11T20:58:04.749Z,17.52
2024-04-11T21:00:50.653Z,17.38
2024-04-11T21:03:36.967Z,18.58
2024-04-11T21:06:24.700Z,18.03
2024-04-11T21:09:10.776Z,16.17
2024-04-11T21:11:56.874Z,17.80
2024-04-11T21:14:42.939Z,20.13
2024-04-11T21:17:28.966Z,19.08
2024-04-11T21:20:14.619Z,19.10
2024-04-11T21:23:00.140Z,19.00
2024-04-11T21:25:46.881Z,18.88
2024-04-11T21:28:49.490Z,20.17
2024-04-11T21:31:35.281Z,18.50
2024-04-11T21:34:02.777Z,18.73
2024-04-11T21:36:34.085Z,18.45
2024-04-11T21:39:01.813Z,17.58
2024-04-11T21:41:30.747Z,17.08
2024-04-11T21:43:58.701Z,19.17
2024-04-11T21:46:39.631Z,18.73
2024-04-11T21:49:07.857Z,16.40
2024-04-11T21:51:35.687Z,18.67
2024-04-11T21:54:03.265Z,18.42
2024-04-11T21:56:33.847Z,16.75
2024-04-11T21:59:01.975Z,14.43
2024-04-11T22:01:47.346Z,17.40
2024-04-11T22:04:34.625Z,17.15
2024-04-11T22:07:03.713Z,15.73
2024-04-11T22:09:42.509Z,16.00
2024-04-11T22:12:12.408Z,17.80
2024-04-11T22:14:45.092Z,16.58
2024-04-11T22:17:22.705Z,17.67
2024-04-11T22:20:01.759Z,16.85
2024-04-11T22:22:34.672Z,15.90
2024-04-11T22:25:01.742Z,15.80
2024-04-11T22:27:30.248Z,15.38
2024-04-11T22:29:59.637Z,16.00
2024-04-11T22:32:32.716Z,15.77
2024-04-11T22:35:00.713Z,16.17
2024-04-11T22:37:33.795Z,15.97
2024-04-11T22:40:02.676Z,15.98
2024-04-11T22:42:37.499Z,15.88
2024-04-11T22:45:07.233Z,17.02
2024-04-11T22:47:41.402Z,16.27
2024-04-11T22:50:17.408Z,14.80
2024-04-11T22:52:52.389Z,16.25
2024-04-11T22:55:24.309Z,15.65
2024-04-11T22:57:53.969Z,17.30
2024-04-11T23:00:29.238Z,16.17
2024-04-11T23:03:02.010Z,15.30
2024-04-11T23:05:29.683Z,14.68
2024-04-11T23:08:00.611Z,13.50
2024-04-11T23:10:41.053Z,15.48
2024-04-11T23:13:17.317Z,16.30
2024-04-11T23:15:49.192Z,16.17
2024-04-11T23:18:18.556Z,15.35
2024-04-11T23:20:48.630Z,14.52
2024-04-11T23:23:22.260Z,15.30
2024-04-11T23:25:53.762Z,15.38
2024-04-11T23:28:28.175Z,15.83
2024-04-11T23:30:57.239Z,15.52
2024-04-11T23:33:30.499Z,16.00
2024-04-11T23:36:06.295Z,16.08
2024-04-11T23:38:46.006Z,15.38
2024-04-11T23:41:19.184Z,15.10
2024-04-11T23:43:49.964Z,14.45
2024-04-11T23:46:31.886Z,15.27
2024-04-11T23:49:07.604Z,14.52
2024-04-11T23:51:50.967Z,15.70
2024-04-11T23:54:23.840Z,15.87
2024-04-11T23:57:03.203Z,14.68
2024-04-11T23:59:40.736Z,14.00
